Time;durP1;ratioP1;P1;durP2;ratioP2;P2;SDS_P1;SDS_P2;PMS_P1;PMS_P2;Temp;Humidity;BMP_temperature;BMP_pressure;BME280_temperature;BME280_humidity;BME280_pressure;Samples;Min_cycle;Max_cycle;Signal;HPM_P1;HPM_P2
2021/08/14 00:01:07;;;;;;;9.20;6.12;;;;;;;;;;1855102;77;21174;-49
2021/08/14 00:03:36;;;;;;;9.70;6.60;;;;;;;;;;1854956;77;21167;-48
2021/08/14 00:06:05;;;;;;;9.45;7.70;;;;;;;;;;1854979;77;21056;-48
2021/08/14 00:08:34;;;;;;;11.53;6.15;;;;;;;;;;1855029;77;21111;-47
2021/08/14 00:11:04;;;;;;;10.90;6.67;;;;;;;;;;1854968;77;21061;-47
2021/08/14 00:13:33;;;;;;;8.03;6.50;;;;;;;;;;1855027;77;21052;-49
2021/08/14 00:16:02;;;;;;;10.08;7.03;;;;;;;;;;1854963;77;21044;-47
2021/08/14 00:18:31;;;;;;;12.33;8.00;;;;;;;;;;1855104;77;21111;-50
2021/08/14 00:21:00;;;;;;;9.28;7.35;;;;;;;;;;1854956;77;21103;-51
2021/08/14 00:23:29;;;;;;;10.18;7.95;;;;;;;;;;1855112;77;21115;-49
2021/08/14 00:25:58;;;;;;;7.60;6.05;;;;;;;;;;1854963;77;21104;-48
2021/08/14 00:28:26;;;;;;;9.10;7.40;;;;;;;;;;1854987;77;21053;-50
2021/08/14 00:30:55;;;;;;;10.15;7.25;;;;;;;;;;1854967;77;21123;-48
2021/08/14 00:33:24;;;;;;;10.72;6.45;;;;;;;;;;1855022;77;21053;-47
2021/08/14 00:35:53;;;;;;;8.98;7.20;;;;;;;;;;1854990;77;21115;-50
2021/08/14 00:38:22;;;;;;;7.60;6.50;;;;;;;;;;1854980;77;21095;-48
2021/08/14 00:40:51;;;;;;;9.13;6.95;;;;;;;;;;1854941;77;21056;-48
2021/08/14 00:43:21;;;;;;;11.30;6.87;;;;;;;;;;1855081;77;21143;-50
2021/08/14 00:45:50;;;;;;;11.10;9.45;;;;;;;;;;1854902;77;21033;-48
2021/08/14 00:48:19;;;;;;;11.75;7.95;;;;;;;;;;1855116;77;21127;-48
2021/08/14 00:50:47;;;;;;;9.13;6.95;;;;;;;;;;1854945;77;21108;-47
2021/08/14 00:53:17;;;;;;;10.68;7.28;;;;;;;;;;1855089;77;21033;-48
2021/08/14 00:55:45;;;;;;;9.95;6.62;;;;;;;;;;1854987;77;21056;-47
2021/08/14 00:58:14;;;;;;;8.75;6.53;;;;;;;;;;1861307;77;21008;-47
2021/08/14 01:00:44;;;;;;;9.25;6.28;;;;;;;;;;1861389;77;21102;-47
2021/08/14 01:03:13;;;;;;;10.20;6.95;;;;;;;;;;1861280;77;21088;-47
2021/08/14 01:05:43;;;;;;;10.05;6.05;;;;;;;;;;1861199;77;21106;-48
2021/08/14 01:08:12;;;;;;;7.72;6.87;;;;;;;;;;1861454;77;21154;-50
2021/08/14 01:10:42;;;;;;;5.15;4.65;;;;;;;;;;1861409;77;21122;-51
2021/08/14 01:13:10;;;;;;;6.33;5.75;;;;;;;;;;1861449;77;21065;-49
2021/08/14 01:15:49;;;;;;;8.05;5.83;;;;;;;;;;1861342;77;21060;-47
2021/08/14 01:18:18;;;;;;;10.90;7.03;;;;;;;;;;1861440;77;21150;-47
2021/08/14 01:20:47;;;;;;;12.03;7.60;;;;;;;;;;1861338;77;21049;-50
2021/08/14 01:23:17;;;;;;;12.03;8.18;;;;;;;;;;1861429;77;21167;-49
2021/08/14 01:25:46;;;;;;;10.28;6.40;;;;;;;;;;1861206;77;21044;-50
2021/08/14 01:28:15;;;;;;;9.95;7.17;;;;;;;;;;1861279;77;21024;-49
2021/08/14 01:30:44;;;;;;;7.62;6.65;;;;;;;;;;1861347;77;21114;-50
2021/08/14 01:33:13;;;;;;;8.93;7.03;;;;;;;;;;1861360;77;21147;-50
2021/08/14 01:35:45;;;;;;;10.00;6.28;;;;;;;;;;1861331;77;21060;-49
2021/08/14 01:38:14;;;;;;;9.55;6.62;;;;;;;;;;1861296;77;21174;-48
2021/08/14 01:40:42;;;;;;;7.50;6.03;;;;;;;;;;1861183;77;21119;-47
2021/08/14 01:43:11;;;;;;;5.85;4.62;;;;;;;;;;1861233;77;21052;-47
2021/08/14 01:45:43;;;;;;;7.80;5.97;;;;;;;;;;1861177;77;21060;-49
2021/08/14 01:48:12;;;;;;;11.15;5.53;;;;;;;;;;1861476;77;21498;-48
2021/08/14 01:50:41;;;;;;;7.30;5.08;;;;;;;;;;1861565;77;21048;-50
2021/08/14 01:53:09;;;;;;;7.60;4.92;;;;;;;;;;1861544;77;21044;-50
2021/08/14 01:55:38;;;;;;;8.63;5.22;;;;;;;;;;1861642;77;21158;-47
2021/08/14 01:58:07;;;;;;;6.53;4.42;;;;;;;;;;1856530;77;21077;-47
2021/08/14 02:00:36;;;;;;;5.42;4.50;;;;;;;;;;1855327;77;21045;-50
2021/08/14 02:03:05;;;;;;;7.55;4.30;;;;;;;;;;1855212;77;21056;-50
2021/08/14 02:05:34;;;;;;;6.17;3.30;;;;;;;;;;1855280;77;21114;-50
2021/08/14 02:08:03;;;;;;;8.63;4.22;;;;;;;;;;1855220;77;21032;-50
2021/08/14 02:10:31;;;;;;;8.23;4.53;;;;;;;;;;1855177;77;21017;-48
2021/08/14 02:13:00;;;;;;;6.00;4.20;;;;;;;;;;1855234;77;21041;-51
2021/08/14 02:15:29;;;;;;;10.45;4.67;;;;;;;;;;1855292;77;21107;-49
2021/08/14 02:17:58;;;;;;;8.03;4.37;;;;;;;;;;1855231;77;21092;-48
2021/08/14 02:20:27;;;;;;;9.18;4.40;;;;;;;;;;1855225;77;21122;-49
2021/08/14 02:22:56;;;;;;;7.65;4.65;;;;;;;;;;1855179;77;21028;-49
2021/08/14 02:25:25;;;;;;;5.58;4.30;;;;;;;;;;1855167;77;21127;-47
2021/08/14 02:27:54;;;;;;;7.95;4.08;;;;;;;;;;1855216;77;21029;-51
2021/08/14 02:30:22;;;;;;;10.78;5.03;;;;;;;;;;1855218;77;21105;-50
2021/08/14 02:32:51;;;;;;;6.10;4.10;;;;;;;;;;1855216;77;21045;-47
2021/08/14 02:35:20;;;;;;;8.73;4.58;;;;;;;;;;1855184;77;21056;-48
2021/08/14 02:37:50;;;;;;;8.53;5.08;;;;;;;;;;1855396;77;21044;-50
2021/08/14 02:40:19;;;;;;;7.40;4.58;;;;;;;;;;1855319;77;21525;-47
2021/08/14 02:42:48;;;;;;;8.98;5.10;;;;;;;;;;1855296;77;21044;-47
2021/08/14 02:45:16;;;;;;;7.87;5.70;;;;;;;;;;1855206;77;21118;-50
2021/08/14 02:47:45;;;;;;;10.38;5.97;;;;;;;;;;1855282;77;21049;-50
2021/08/14 02:50:14;;;;;;;12.37;5.42;;;;;;;;;;1855250;77;21057;-50
2021/08/14 02:52:43;;;;;;;12.40;5.28;;;;;;;;;;1855321;77;21076;-50
2021/08/14 02:55:12;;;;;;;8.30;5.95;;;;;;;;;;1855321;77;21061;-47
2021/08/14 02:57:41;;;;;;;8.88;5.40;;;;;;;;;;1858041;76;21076;-51
2021/08/14 03:00:11;;;;;;;10.25;6.95;;;;;;;;;;1861377;77;21119;-48
2021/08/14 03:02:39;;;;;;;10.95;6.37;;;;;;;;;;1861504;77;21060;-47
2021/08/14 03:05:09;;;;;;;10.63;6.87;;;;;;;;;;1861244;77;21104;-48
2021/08/14 03:07:38;;;;;;;13.10;6.85;;;;;;;;;;1861427;77;21044;-51
2021/08/14 03:10:07;;;;;;;12.35;6.62;;;;;;;;;;1861390;77;21036;-48
2021/08/14 03:12:36;;;;;;;10.08;7.15;;;;;;;;;;1861316;77;21114;-50
2021/08/14 03:15:05;;;;;;;8.58;6.42;;;;;;;;;;1861295;77;21048;-50
2021/08/14 03:17:34;;;;;;;12.68;7.08;;;;;;;;;;1861316;77;21040;-50
2021/08/14 03:20:04;;;;;;;15.15;7.25;;;;;;;;;;1861286;77;21049;-47
2021/08/14 03:22:32;;;;;;;6.85;5.00;;;;;;;;;;1861315;77;21056;-49
2021/08/14 03:25:01;;;;;;;10.58;6.45;;;;;;;;;;1861319;77;21100;-48
2021/08/14 03:27:30;;;;;;;10.85;7.12;;;;;;;;;;1861271;77;21114;-50
2021/08/14 03:29:59;;;;;;;10.03;6.35;;;;;;;;;;1861301;77;21060;-48
2021/08/14 03:32:28;;;;;;;9.90;5.97;;;;;;;;;;1861344;77;21162;-47
2021/08/14 03:34:57;;;;;;;12.80;6.22;;;;;;;;;;1861267;77;21092;-50
2021/08/14 03:37:26;;;;;;;10.10;6.95;;;;;;;;;;1861303;77;21127;-47
2021/08/14 03:39:55;;;;;;;12.28;7.03;;;;;;;;;;1861259;77;21096;-50
2021/08/14 03:42:24;;;;;;;9.90;5.87;;;;;;;;;;1861401;77;21123;-47
2021/08/14 03:44:53;;;;;;;8.55;6.17;;;;;;;;;;1861279;77;21117;-49
2021/08/14 03:47:21;;;;;;;8.75;3.65;;;;;;;;;;1861310;77;21044;-47
2021/08/14 03:49:50;;;;;;;3.90;2.95;;;;;;;;;;1861286;77;21061;-50
2021/08/14 03:52:20;;;;;;;3.02;2.52;;;;;;;;;;1861326;77;21052;-50
2021/08/14 03:54:48;;;;;;;5.08;3.35;;;;;;;;;;1861277;77;21068;-50
2021/08/14 03:57:18;;;;;;;4.65;2.80;;;;;;;;;;1860784;76;21064;-49
2021/08/14 03:59:47;;;;;;;8.93;4.35;;;;;;;;;;1855126;77;21119;-47
2021/08/14 04:02:15;;;;;;;4.53;2.77;;;;;;;;;;1855120;77;21119;-50
2021/08/14 04:04:44;;;;;;;4.83;2.77;;;;;;;;;;1855015;77;21052;-48
2021/08/14 04:07:13;;;;;;;6.67;3.08;;;;;;;;;;1854939;77;21029;-50
2021/08/14 04:09:42;;;;;;;7.20;3.20;;;;;;;;;;1854990;77;21024;-48
2021/08/14 04:12:11;;;;;;;5.22;4.10;;;;;;;;;;1855071;77;21126;-50
2021/08/14 04:14:39;;;;;;;5.92;2.98;;;;;;;;;;1855053;77;21048;-51
2021/08/14 04:17:08;;;;;;;4.80;3.52;;;;;;;;;;1855081;77;21170;-47
2021/08/14 04:19:37;;;;;;;7.47;4.05;;;;;;;;;;1854986;77;21080;-50
2021/08/14 04:22:06;;;;;;;3.80;3.08;;;;;;;;;;1855075;77;21045;-47
2021/08/14 04:24:35;;;;;;;3.27;2.92;;;;;;;;;;1854901;77;21110;-47
2021/08/14 04:27:04;;;;;;;4.62;3.12;;;;;;;;;;1855011;77;21049;-47
2021/08/14 04:29:34;;;;;;;5.92;3.47;;;;;;;;;;1855076;77;21069;-49
2021/08/14 04:32:03;;;;;;;4.55;3.58;;;;;;;;;;1855108;77;21541;-51
2021/08/14 04:34:31;;;;;;;5.00;4.45;;;;;;;;;;1855015;77;21033;-48
2021/08/14 04:37:00;;;;;;;6.80;4.87;;;;;;;;;;1855084;77;21045;-48
2021/08/14 04:39:29;;;;;;;5.78;3.92;;;;;;;;;;1855079;77;21080;-48
2021/08/14 04:41:57;;;;;;;10.30;4.92;;;;;;;;;;1855081;77;21021;-46
2021/08/14 04:44:26;;;;;;;9.70;5.22;;;;;;;;;;1854876;77;21045;-47
2021/08/14 04:46:55;;;;;;;10.13;6.20;;;;;;;;;;1854902;77;21130;-47
2021/08/14 04:49:24;;;;;;;5.62;4.70;;;;;;;;;;1854948;77;21191;-47
2021/08/14 04:51:54;;;;;;;6.15;4.62;;;;;;;;;;1855091;77;21150;-49
2021/08/14 04:54:22;;;;;;;8.65;5.40;;;;;;;;;;1854963;77;21049;-50
2021/08/14 04:56:51;;;;;;;8.25;5.30;;;;;;;;;;1854962;77;21050;-48
2021/08/14 04:59:20;;;;;;;9.60;5.25;;;;;;;;;;1854851;77;21081;-49
2021/08/14 05:01:49;;;;;;;10.63;5.80;;;;;;;;;;1854997;77;21119;-50
2021/08/14 05:04:18;;;;;;;5.62;4.47;;;;;;;;;;1854872;77;21049;-50
2021/08/14 05:06:47;;;;;;;11.53;5.53;;;;;;;;;;1854889;77;21107;-50
2021/08/14 05:09:16;;;;;;;8.53;6.10;;;;;;;;;;1854868;77;21064;-47
2021/08/14 05:11:45;;;;;;;7.67;4.87;;;;;;;;;;1854887;77;21139;-47
2021/08/14 05:14:14;;;;;;;9.18;5.67;;;;;;;;;;1854921;77;21119;-49
2021/08/14 05:16:43;;;;;;;9.08;6.17;;;;;;;;;;1855054;77;21118;-49
2021/08/14 05:19:12;;;;;;;12.03;4.97;;;;;;;;;;1855004;77;21140;-51
2021/08/14 05:21:41;;;;;;;11.68;6.35;;;;;;;;;;1854969;77;21193;-50
2021/08/14 05:24:10;;;;;;;8.03;5.70;;;;;;;;;;1854836;77;21104;-48
2021/08/14 05:26:38;;;;;;;8.25;6.22;;;;;;;;;;1855291;77;21152;-51
2021/08/14 05:29:07;;;;;;;13.30;6.30;;;;;;;;;;1855013;77;21049;-48
2021/08/14 05:31:36;;;;;;;9.83;6.67;;;;;;;;;;1855008;77;21021;-52
2021/08/14 05:34:05;;;;;;;12.37;5.08;;;;;;;;;;1855121;77;21065;-50
2021/08/14 05:36:34;;;;;;;7.83;5.33;;;;;;;;;;1855028;77;21041;-50
2021/08/14 05:39:03;;;;;;;11.75;5.92;;;;;;;;;;1854972;77;21115;-49
2021/08/14 05:41:37;;;;;;;8.65;5.60;;;;;;;;;;1855047;77;21056;-49
2021/08/14 05:44:02;;;;;;;11.08;5.83;;;;;;;;;;1854574;77;21491;-49
2021/08/14 05:46:31;;;;;;;6.90;5.08;;;;;;;;;;1855057;77;21119;-51
2021/08/14 05:49:00;;;;;;;6.75;4.05;;;;;;;;;;1854860;77;21087;-49
2021/08/14 05:51:29;;;;;;;7.53;4.95;;;;;;;;;;1854910;77;21052;-49
2021/08/14 05:53:58;;;;;;;6.55;3.92;;;;;;;;;;1854885;77;21119;-51
2021/08/14 05:56:26;;;;;;;7.15;4.70;;;;;;;;;;1855015;77;21118;-51
2021/08/14 05:58:56;;;;;;;7.85;5.17;;;;;;;;;;1854857;77;21073;-49
2021/08/14 06:01:24;;;;;;;8.10;5.10;;;;;;;;;;1854985;77;21119;-47
2021/08/14 06:03:53;;;;;;;10.88;5.08;;;;;;;;;;1854765;77;21087;-51
2021/08/14 06:06:23;;;;;;;6.62;4.08;;;;;;;;;;1854936;77;21147;-51
2021/08/14 06:08:51;;;;;;;8.60;4.28;;;;;;;;;;1854956;77;21057;-51
2021/08/14 06:11:20;;;;;;;5.03;3.35;;;;;;;;;;1854969;77;21057;-48
2021/08/14 06:13:49;;;;;;;9.55;4.22;;;;;;;;;;1854828;77;21088;-48
2021/08/14 06:16:19;;;;;;;4.85;3.50;;;;;;;;;;1854812;77;21119;-50
2021/08/14 06:18:47;;;;;;;6.55;3.90;;;;;;;;;;1854946;77;21053;-47
2021/08/14 06:21:16;;;;;;;6.17;4.50;;;;;;;;;;1854945;77;21053;-49
2021/08/14 06:23:45;;;;;;;8.05;4.42;;;;;;;;;;1854862;77;21096;-51
2021/08/14 06:26:14;;;;;;;6.75;4.33;;;;;;;;;;1854911;77;21012;-49
2021/08/14 06:28:43;;;;;;;6.05;3.90;;;;;;;;;;1854880;77;21040;-48
2021/08/14 06:31:11;;;;;;;6.17;4.80;;;;;;;;;;1854833;77;21049;-47
2021/08/14 06:33:40;;;;;;;6.53;3.40;;;;;;;;;;1854830;77;21060;-50
2021/08/14 06:36:09;;;;;;;4.65;3.70;;;;;;;;;;1855062;77;21099;-51
2021/08/14 06:38:38;;;;;;;7.22;3.75;;;;;;;;;;1855069;77;21076;-48
2021/08/14 06:41:07;;;;;;;4.50;3.85;;;;;;;;;;1855004;77;21037;-47
2021/08/14 06:43:36;;;;;;;6.15;3.90;;;;;;;;;;1854938;77;21061;-51
2021/08/14 06:46:05;;;;;;;5.17;3.52;;;;;;;;;;1854918;77;21064;-47
2021/08/14 06:48:35;;;;;;;3.98;3.40;;;;;;;;;;1854908;77;21127;-47
2021/08/14 06:51:03;;;;;;;6.58;4.08;;;;;;;;;;1854992;77;21053;-50
2021/08/14 06:53:32;;;;;;;5.97;5.33;;;;;;;;;;1854966;77;21115;-51
2021/08/14 06:56:01;;;;;;;6.25;5.47;;;;;;;;;;1854854;77;21107;-48
2021/08/14 06:58:30;;;;;;;6.58;5.62;;;;;;;;;;1854860;77;21126;-48
2021/08/14 07:00:59;;;;;;;7.22;5.90;;;;;;;;;;1864505;77;21067;-50
2021/08/14 07:03:28;;;;;;;7.83;7.03;;;;;;;;;;1864467;77;21143;-48
2021/08/14 07:05:57;;;;;;;7.67;6.45;;;;;;;;;;1864554;77;21028;-50
2021/08/14 07:08:26;;;;;;;9.20;6.72;;;;;;;;;;1864492;77;21118;-51
2021/08/14 07:10:55;;;;;;;10.00;7.00;;;;;;;;;;1864529;77;21130;-48
2021/08/14 07:13:23;;;;;;;9.45;7.03;;;;;;;;;;1864470;77;21056;-51
2021/08/14 07:15:52;;;;;;;8.73;6.83;;;;;;;;;;1864622;77;21039;-51
2021/08/14 07:18:20;;;;;;;6.55;5.03;;;;;;;;;;1864608;77;21044;-51
2021/08/14 07:20:49;;;;;;;7.40;6.47;;;;;;;;;;1864500;77;21016;-51
2021/08/14 07:23:18;;;;;;;7.95;5.87;;;;;;;;;;1864669;77;21044;-51
2021/08/14 07:25:47;;;;;;;8.05;7.12;;;;;;;;;;1864473;77;21032;-49
2021/08/14 07:28:15;;;;;;;11.65;8.95;;;;;;;;;;1864486;77;21028;-51
2021/08/14 07:30:44;;;;;;;8.78;7.87;;;;;;;;;;1864528;77;21052;-50
2021/08/14 07:33:14;;;;;;;9.15;8.25;;;;;;;;;;1864312;77;21103;-51
2021/08/14 07:35:42;;;;;;;7.90;7.00;;;;;;;;;;1864594;77;21127;-51
2021/08/14 07:38:11;;;;;;;10.15;8.90;;;;;;;;;;1864800;77;21057;-49
2021/08/14 07:40:40;;;;;;;8.28;6.78;;;;;;;;;;1864757;77;21096;-50
2021/08/14 07:43:09;;;;;;;7.90;6.37;;;;;;;;;;1864289;77;21048;-50
2021/08/14 07:45:38;;;;;;;10.13;9.13;;;;;;;;;;1863033;77;21135;-51
2021/08/14 07:48:07;;;;;;;9.68;8.70;;;;;;;;;;1863191;77;21034;-50
2021/08/14 07:50:37;;;;;;;10.90;9.90;;;;;;;;;;1864369;77;21068;-47
2021/08/14 07:53:05;;;;;;;11.95;10.60;;;;;;;;;;1864398;77;21040;-49
2021/08/14 07:55:34;;;;;;;12.63;11.25;;;;;;;;;;1864622;77;21141;-49
2021/08/14 07:58:04;;;;;;;14.98;12.70;;;;;;;;;;1864410;77;21098;-48
2021/08/14 08:00:33;;;;;;;16.20;11.53;;;;;;;;;;1862229;76;21201;-47
2021/08/14 08:03:01;;;;;;;14.33;12.13;;;;;;;;;;1855622;77;21049;-49
2021/08/14 08:05:30;;;;;;;14.47;10.32;;;;;;;;;;1854931;77;21108;-48
2021/08/14 08:08:00;;;;;;;11.38;9.75;;;;;;;;;;1854903;77;21118;-51
2021/08/14 08:10:29;;;;;;;12.73;10.75;;;;;;;;;;1854885;77;21061;-51
2021/08/14 08:12:58;;;;;;;12.45;10.95;;;;;;;;;;1854949;77;21029;-50
2021/08/14 08:15:28;;;;;;;15.85;11.53;;;;;;;;;;1855049;77;21040;-49
2021/08/14 08:17:56;;;;;;;11.88;9.88;;;;;;;;;;1854938;77;21017;-51
2021/08/14 08:20:26;;;;;;;17.05;10.88;;;;;;;;;;1855032;77;21103;-51
2021/08/14 08:22:54;;;;;;;13.80;10.43;;;;;;;;;;1854989;77;21069;-50
2021/08/14 08:25:24;;;;;;;17.07;13.48;;;;;;;;;;1854949;77;21190;-51
2021/08/14 08:27:53;;;;;;;37.25;22.20;;;;;;;;;;1854867;77;21112;-50
2021/08/14 08:30:22;;;;;;;22.22;14.03;;;;;;;;;;1854930;77;21032;-51
2021/08/14 08:32:51;;;;;;;17.73;12.68;;;;;;;;;;1871776;76;21070;-49
2021/08/14 08:35:20;;;;;;;10.65;9.40;;;;;;;;;;1886526;76;21170;-51
2021/08/14 08:37:49;;;;;;;68.78;40.35;;;;;;;;;;1887045;75;21047;-51
2021/08/14 08:40:18;;;;;;;21.77;16.45;;;;;;;;;;1886778;76;21109;-50
2021/08/14 08:42:47;;;;;;;18.90;15.08;;;;;;;;;;1886698;76;21014;-51
2021/08/14 08:45:16;;;;;;;15.88;13.83;;;;;;;;;;1886710;76;21129;-50
2021/08/14 08:47:45;;;;;;;13.08;11.68;;;;;;;;;;1886796;76;21041;-50
2021/08/14 08:50:14;;;;;;;19.02;14.20;;;;;;;;;;1886733;76;21120;-51
2021/08/14 08:52:44;;;;;;;13.25;11.88;;;;;;;;;;1886682;76;21051;-51
2021/08/14 08:55:25;;;;;;;16.70;13.15;;;;;;;;;;1884893;76;21050;-50
2021/08/14 08:57:57;;;;;;;12.60;11.25;;;;;;;;;;1867380;77;21047;-47
2021/08/14 09:00:26;;;;;;;13.53;11.05;;;;;;;;;;1868288;77;21097;-48
2021/08/14 09:02:56;;;;;;;35.78;26.95;;;;;;;;;;1873811;75;21059;-47
2021/08/14 09:05:24;;;;;;;71.72;51.90;;;;;;;;;;1870516;76;21119;-49
2021/08/14 09:07:53;;;;;;;31.80;23.65;;;;;;;;;;1875002;76;21043;-50
2021/08/14 09:10:26;;;;;;;28.10;19.90;;;;;;;;;;1875034;76;21125;-50
2021/08/14 09:12:54;;;;;;;15.72;12.10;;;;;;;;;;1875085;76;21175;-49
2021/08/14 09:15:30;;;;;;;17.37;12.35;;;;;;;;;;1875039;76;21040;-50
2021/08/14 09:18:02;;;;;;;13.62;12.25;;;;;;;;;;1875090;76;21028;-51
2021/08/14 09:20:33;;;;;;;13.68;12.28;;;;;;;;;;1874957;76;21097;-51
2021/08/14 09:23:06;;;;;;;13.28;11.57;;;;;;;;;;1875051;76;22194;-49
2021/08/14 09:25:39;;;;;;;16.82;11.95;;;;;;;;;;1874216;76;21071;-49
2021/08/14 09:28:08;;;;;;;12.60;11.30;;;;;;;;;;1873911;76;22414;-50
2021/08/14 09:30:47;;;;;;;15.70;11.83;;;;;;;;;;1874079;76;21063;-48
2021/08/14 09:33:16;;;;;;;17.70;13.75;;;;;;;;;;1874067;76;21090;-48
2021/08/14 09:35:45;;;;;;;15.65;13.25;;;;;;;;;;1873987;76;21059;-49
2021/08/14 09:38:15;;;;;;;18.15;15.10;;;;;;;;;;1874050;76;21091;-51
2021/08/14 09:40:45;;;;;;;19.12;14.30;;;;;;;;;;1874085;76;21032;-51
2021/08/14 09:43:14;;;;;;;18.02;13.65;;;;;;;;;;1874218;76;21095;-51
2021/08/14 09:45:55;;;;;;;14.73;12.60;;;;;;;;;;1875069;76;21024;-50
2021/08/14 09:48:24;;;;;;;15.03;12.80;;;;;;;;;;1875109;76;21087;-48
2021/08/14 09:50:53;;;;;;;14.75;12.53;;;;;;;;;;1875061;76;21524;-51
2021/08/14 09:53:23;;;;;;;10.95;9.48;;;;;;;;;;1875054;76;21176;-51
2021/08/14 09:55:54;;;;;;;13.70;12.33;;;;;;;;;;1875138;76;21044;-48
2021/08/14 09:58:24;;;;;;;13.68;12.05;;;;;;;;;;1873038;76;21044;-50
2021/08/14 10:00:53;;;;;;;14.15;12.58;;;;;;;;;;1875129;76;21089;-49
2021/08/14 10:03:22;;;;;;;14.35;12.75;;;;;;;;;;1875085;75;21102;-51
2021/08/14 10:05:51;;;;;;;14.73;13.10;;;;;;;;;;1875119;76;21028;-49
2021/08/14 10:08:20;;;;;;;14.98;12.95;;;;;;;;;;1875066;76;21019;-47
2021/08/14 10:10:49;;;;;;;14.28;12.88;;;;;;;;;;1875173;76;21044;-47
2021/08/14 10:13:19;;;;;;;15.98;12.98;;;;;;;;;;1875325;76;21106;-51
2021/08/14 10:15:48;;;;;;;9.33;7.90;;;;;;;;;;1875213;76;21032;-51
2021/08/14 10:18:17;;;;;;;16.95;14.20;;;;;;;;;;1875474;76;21094;-51
2021/08/14 10:20:47;;;;;;;14.63;12.50;;;;;;;;;;1875276;76;21004;-52
2021/08/14 10:23:19;;;;;;;15.23;13.08;;;;;;;;;;1875204;76;21028;-48
2021/08/14 10:25:49;;;;;;;13.58;12.15;;;;;;;;;;1874524;76;21048;-50
2021/08/14 10:28:18;;;;;;;14.80;13.28;;;;;;;;;;1875292;76;21039;-48
2021/08/14 10:30:48;;;;;;;16.05;14.35;;;;;;;;;;1875208;76;21106;-50
2021/08/14 10:33:31;;;;;;;15.20;12.95;;;;;;;;;;1875264;76;21008;-49
2021/08/14 10:36:01;;;;;;;13.85;12.15;;;;;;;;;;1875228;76;21051;-50
2021/08/14 10:38:37;;;;;;;13.10;11.70;;;;;;;;;;1870526;76;21028;-48
2021/08/14 10:41:07;;;;;;;15.80;13.18;;;;;;;;;;1875183;76;21027;-49
2021/08/14 10:43:57;;;;;;;9.48;8.60;;;;;;;;;;1875292;76;21035;-50
2021/08/14 10:46:48;;;;;;;14.63;13.13;;;;;;;;;;1875165;76;21114;-47
2021/08/14 10:49:17;;;;;;;14.85;12.33;;;;;;;;;;1875170;76;21052;-49
2021/08/14 10:51:54;;;;;;;16.07;12.85;;;;;;;;;;1875247;75;21031;-50
2021/08/14 10:54:30;;;;;;;14.58;12.95;;;;;;;;;;1874318;76;21024;-51
2021/08/14 10:57:00;;;;;;;12.70;10.95;;;;;;;;;;1875142;76;21067;-49
2021/08/14 10:59:39;;;;;;;16.20;14.03;;;;;;;;;;1875197;76;21121;-47
2021/08/14 11:02:09;;;;;;;15.55;13.60;;;;;;;;;;1875327;76;21027;-48
2021/08/14 11:04:39;;;;;;;16.80;13.93;;;;;;;;;;1875107;76;21064;-50
2021/08/14 11:07:21;;;;;;;14.93;13.32;;;;;;;;;;1875197;76;21458;-50
2021/08/14 11:09:57;;;;;;;15.60;13.95;;;;;;;;;;1875360;76;21094;-51
2021/08/14 11:12:40;;;;;;;16.93;14.78;;;;;;;;;;1875102;76;21078;-49
2021/08/14 11:15:22;;;;;;;18.23;15.58;;;;;;;;;;1875191;76;21098;-50
2021/08/14 11:17:51;;;;;;;19.92;17.92;;;;;;;;;;1875214;75;21024;-51
2021/08/14 11:20:21;;;;;;;19.77;17.25;;;;;;;;;;1875209;76;21020;-49
2021/08/14 11:22:54;;;;;;;19.20;17.23;;;;;;;;;;1875118;76;21044;-48
2021/08/14 11:25:23;;;;;;;21.60;16.93;;;;;;;;;;1875215;76;21032;-48
2021/08/14 11:28:00;;;;;;;15.90;14.07;;;;;;;;;;1875160;76;21064;-50
2021/08/14 11:30:33;;;;;;;16.75;15.08;;;;;;;;;;1875164;76;21052;-48
2021/08/14 11:33:04;;;;;;;15.05;13.43;;;;;;;;;;1875037;76;21079;-48
2021/08/14 11:35:34;;;;;;;13.05;11.85;;;;;;;;;;1875178;76;21020;-49
2021/08/14 11:38:04;;;;;;;17.65;15.88;;;;;;;;;;1875175;76;21036;-48
2021/08/14 11:40:34;;;;;;;16.70;14.90;;;;;;;;;;1875286;76;21102;-48
2021/08/14 11:43:04;;;;;;;18.00;16.25;;;;;;;;;;1875212;76;21486;-51
2021/08/14 11:45:34;;;;;;;20.48;16.85;;;;;;;;;;1875063;76;21036;-49
2021/08/14 11:48:03;;;;;;;17.12;14.80;;;;;;;;;;1875254;76;21032;-51
2021/08/14 11:50:33;;;;;;;20.32;18.17;;;;;;;;;;1875214;76;21478;-51
2021/08/14 11:53:01;;;;;;;21.02;18.82;;;;;;;;;;1875120;76;21082;-49
2021/08/14 11:55:30;;;;;;;21.17;18.73;;;;;;;;;;1875289;76;21102;-51
2021/08/14 11:58:00;;;;;;;15.78;14.18;;;;;;;;;;1875275;76;21036;-49
2021/08/14 12:00:30;;;;;;;19.52;17.42;;;;;;;;;;1875133;76;21113;-51
2021/08/14 12:03:18;;;;;;;15.10;12.85;;;;;;;;;;1875201;75;21097;-51
2021/08/14 12:05:47;;;;;;;19.90;18.00;;;;;;;;;;1875186;76;21087;-51
2021/08/14 12:08:17;;;;;;;18.10;15.80;;;;;;;;;;1875240;76;21138;-48
2021/08/14 12:10:46;;;;;;;14.93;13.38;;;;;;;;;;1873082;76;21090;-49
2021/08/14 12:13:16;;;;;;;13.90;12.50;;;;;;;;;;1875072;76;21102;-50
2021/08/14 12:15:46;;;;;;;16.40;14.38;;;;;;;;;;1875004;76;21028;-47
2021/08/14 12:18:15;;;;;;;11.65;10.50;;;;;;;;;;1875242;76;21085;-48
2021/08/14 12:20:44;;;;;;;15.40;13.78;;;;;;;;;;1875270;76;21032;-49
2021/08/14 12:23:23;;;;;;;17.12;15.43;;;;;;;;;;1875228;76;21039;-47
2021/08/14 12:25:53;;;;;;;14.75;13.22;;;;;;;;;;1875395;76;21470;-50
2021/08/14 12:28:26;;;;;;;14.43;13.03;;;;;;;;;;1874474;76;21023;-51
2021/08/14 12:30:55;;;;;;;10.80;9.78;;;;;;;;;;1875367;76;21469;-51
2021/08/14 12:33:24;;;;;;;12.33;11.08;;;;;;;;;;1875263;76;21114;-49
2021/08/14 12:35:57;;;;;;;12.05;10.75;;;;;;;;;;1875273;76;21035;-47
2021/08/14 12:38:26;;;;;;;12.33;11.03;;;;;;;;;;1875296;76;21028;-48
2021/08/14 12:40:54;;;;;;;10.58;9.35;;;;;;;;;;1875320;76;21071;-48
2021/08/14 12:43:24;;;;;;;9.50;8.58;;;;;;;;;;1875232;76;21098;-47
2021/08/14 12:45:52;;;;;;;12.15;10.55;;;;;;;;;;1875223;76;21044;-50
2021/08/14 12:48:21;;;;;;;12.47;10.15;;;;;;;;;;1875007;76;21016;-48
2021/08/14 12:50:50;;;;;;;10.53;8.85;;;;;;;;;;1875164;76;21157;-48
2021/08/14 12:53:19;;;;;;;10.82;9.73;;;;;;;;;;1875053;76;21043;-52
2021/08/14 12:55:49;;;;;;;14.73;10.03;;;;;;;;;;1875218;76;21044;-48
2021/08/14 12:58:19;;;;;;;11.50;10.20;;;;;;;;;;1875084;76;21036;-49
2021/08/14 13:00:48;;;;;;;13.78;11.68;;;;;;;;;;1875083;76;21501;-51
2021/08/14 13:03:17;;;;;;;13.28;11.78;;;;;;;;;;1875180;75;21032;-50
2021/08/14 13:05:46;;;;;;;10.85;9.43;;;;;;;;;;1875129;76;21102;-51
2021/08/14 13:08:19;;;;;;;8.58;7.78;;;;;;;;;;1875105;76;21114;-48
2021/08/14 13:10:48;;;;;;;10.88;9.78;;;;;;;;;;1875176;76;21008;-49
2021/08/14 13:13:17;;;;;;;12.90;11.53;;;;;;;;;;1875183;76;21028;-49
2021/08/14 13:15:45;;;;;;;11.53;10.38;;;;;;;;;;1875156;76;21114;-51
2021/08/14 13:18:15;;;;;;;11.78;10.68;;;;;;;;;;1875195;76;21043;-49
2021/08/14 13:20:43;;;;;;;10.38;9.28;;;;;;;;;;1875197;76;21102;-49
2021/08/14 13:23:13;;;;;;;12.90;11.00;;;;;;;;;;1875011;76;21115;-50
2021/08/14 13:25:41;;;;;;;10.23;8.28;;;;;;;;;;1875025;76;21177;-51
2021/08/14 13:28:10;;;;;;;12.53;10.85;;;;;;;;;;1875128;76;21040;-50
2021/08/14 13:30:39;;;;;;;11.73;10.50;;;;;;;;;;1875121;76;21039;-50
2021/08/14 13:33:08;;;;;;;11.10;9.98;;;;;;;;;;1875066;76;21052;-48
2021/08/14 13:35:37;;;;;;;11.93;10.82;;;;;;;;;;1875159;76;21040;-50
2021/08/14 13:38:06;;;;;;;12.10;10.80;;;;;;;;;;1875085;76;21044;-47
2021/08/14 13:40:35;;;;;;;14.95;11.80;;;;;;;;;;1875154;76;21106;-51
2021/08/14 13:43:04;;;;;;;13.05;11.75;;;;;;;;;;1875069;76;21110;-49
2021/08/14 13:45:32;;;;;;;11.28;10.13;;;;;;;;;;1875254;76;21044;-50
2021/08/14 13:48:01;;;;;;;10.82;9.73;;;;;;;;;;1875229;76;21086;-47
2021/08/14 13:50:30;;;;;;;12.33;11.08;;;;;;;;;;1875109;76;21015;-47
2021/08/14 13:52:59;;;;;;;8.93;8.05;;;;;;;;;;1874997;76;21016;-50
2021/08/14 13:55:27;;;;;;;10.70;8.60;;;;;;;;;;1875135;76;21020;-51
2021/08/14 13:57:57;;;;;;;11.30;8.10;;;;;;;;;;1875154;76;21040;-50
2021/08/14 14:00:26;;;;;;;11.20;8.40;;;;;;;;;;1875216;76;21035;-50
2021/08/14 14:02:55;;;;;;;10.32;8.48;;;;;;;;;;1875135;76;21035;-50
2021/08/14 14:05:24;;;;;;;9.75;8.75;;;;;;;;;;1875055;76;21937;-51
2021/08/14 14:07:53;;;;;;;11.28;8.80;;;;;;;;;;1875212;76;21028;-48
2021/08/14 14:10:22;;;;;;;8.73;7.85;;;;;;;;;;1875130;76;21083;-50
2021/08/14 14:12:51;;;;;;;9.08;7.08;;;;;;;;;;1875164;76;21194;-50
2021/08/14 14:15:20;;;;;;;11.73;8.90;;;;;;;;;;1875112;76;21047;-50
2021/08/14 14:17:48;;;;;;;10.65;8.65;;;;;;;;;;1875105;76;21044;-50
2021/08/14 14:20:17;;;;;;;9.83;8.83;;;;;;;;;;1875050;76;21131;-51
2021/08/14 14:22:46;;;;;;;10.00;7.92;;;;;;;;;;1875138;76;21047;-50
2021/08/14 14:25:15;;;;;;;9.43;8.05;;;;;;;;;;1875197;76;21028;-49
2021/08/14 14:27:46;;;;;;;10.43;7.72;;;;;;;;;;1875010;76;21114;-50
2021/08/14 14:30:15;;;;;;;13.58;9.25;;;;;;;;;;1875114;76;21540;-47
2021/08/14 14:32:44;;;;;;;9.05;7.80;;;;;;;;;;1875019;76;21099;-50
2021/08/14 14:35:13;;;;;;;11.05;9.00;;;;;;;;;;1875071;76;21153;-50
2021/08/14 14:37:41;;;;;;;11.12;8.50;;;;;;;;;;1875128;76;21111;-50
2021/08/14 14:40:11;;;;;;;11.28;9.60;;;;;;;;;;1875162;76;21016;-50
2021/08/14 14:42:39;;;;;;;14.03;8.58;;;;;;;;;;1875032;76;21098;-47
2021/08/14 14:45:08;;;;;;;10.20;8.93;;;;;;;;;;1875111;76;21036;-49